sensor_id;sensor_type;location;lat;lon;timestamp;P1;durP1;ratioP1;P2;durP2;ratioP2
24273;SDS011;12392;42.678;23.380;2023-03-11T00:01:40;12.15;;;8.02;;
24273;SDS011;12392;42.678;23.380;2023-03-11T00:04:06;11.07;;;7.43;;
24273;SDS011;12392;42.678;23.380;2023-03-11T00:06:35;12.68;;;7.75;;
24273;SDS011;12392;42.678;23.380;2023-03-11T00:09:00;12.43;;;7.85;;
24273;SDS011;12392;42.678;23.380;2023-03-11T00:11:26;10.52;;;5.95;;
24273;SDS011;12392;42.678;23.380;2023-03-11T00:13:52;4.45;;;2.85;;
24273;SDS011;12392;42.678;23.380;2023-03-11T00:16:17;4.15;;;2.97;;
24273;SDS011;12392;42.678;23.380;2023-03-11T00:18:43;2.72;;;1.85;;
24273;SDS011;12392;42.678;23.380;2023-03-11T00:21:13;1.77;;;1.20;;
24273;SDS011;12392;42.678;23.380;2023-03-11T00:23:40;1.40;;;1.02;;
24273;SDS011;12392;42.678;23.380;2023-03-11T00:26:06;0.73;;;0.50;;
24273;SDS011;12392;42.678;23.380;2023-03-11T00:28:32;2.35;;;0.95;;
24273;SDS011;12392;42.678;23.380;2023-03-11T00:30:57;1.75;;;0.77;;
24273;SDS011;12392;42.678;23.380;2023-03-11T00:33:23;0.88;;;0.60;;
24273;SDS011;12392;42.678;23.380;2023-03-11T00:35:49;1.83;;;0.70;;
24273;SDS011;12392;42.678;23.380;2023-03-11T00:38:15;0.45;;;0.45;;
24273;SDS011;12392;42.678;23.380;2023-03-11T00:40:42;1.13;;;0.70;;
24273;SDS011;12392;42.678;23.380;2023-03-11T00:43:09;1.73;;;0.90;;
24273;SDS011;12392;42.678;23.380;2023-03-11T00:45:35;2.08;;;0.70;;
24273;SDS011;12392;42.678;23.380;2023-03-11T00:48:00;0.75;;;0.60;;
24273;SDS011;12392;42.678;23.380;2023-03-11T00:50:27;1.20;;;0.57;;
24273;SDS011;12392;42.678;23.380;2023-03-11T00:52:55;0.93;;;0.52;;
24273;SDS011;12392;42.678;23.380;2023-03-11T00:55:22;1.98;;;0.60;;
24273;SDS011;12392;42.678;23.380;2023-03-11T00:57:53;1.45;;;0.60;;
24273;SDS011;12392;42.678;23.380;2023-03-11T01:00:20;0.88;;;0.25;;
24273;SDS011;12392;42.678;23.380;2023-03-11T01:02:46;0.85;;;0.45;;
24273;SDS011;12392;42.678;23.380;2023-03-11T01:05:12;0.98;;;0.43;;
24273;SDS011;12392;42.678;23.380;2023-03-11T01:07:38;0.88;;;0.40;;
24273;SDS011;12392;42.678;23.380;2023-03-11T01:10:04;2.95;;;0.50;;
24273;SDS011;12392;42.678;23.380;2023-03-11T01:12:31;0.65;;;0.65;;
24273;SDS011;12392;42.678;23.380;2023-03-11T01:14:56;0.32;;;0.32;;
24273;SDS011;12392;42.678;23.380;2023-03-11T01:17:22;1.70;;;0.30;;
24273;SDS011;12392;42.678;23.380;2023-03-11T01:19:48;0.77;;;0.25;;
24273;SDS011;12392;42.678;23.380;2023-03-11T01:22:14;1.60;;;0.40;;
24273;SDS011;12392;42.678;23.380;2023-03-11T01:24:40;1.35;;;0.55;;
24273;SDS011;12392;42.678;23.380;2023-03-11T01:27:06;0.68;;;0.40;;
24273;SDS011;12392;42.678;23.380;2023-03-11T01:29:32;0.38;;;0.20;;
24273;SDS011;12392;42.678;23.380;2023-03-11T01:31:57;2.63;;;0.50;;
24273;SDS011;12392;42.678;23.380;2023-03-11T01:34:23;1.65;;;0.28;;
24273;SDS011;12392;42.678;23.380;2023-03-11T01:36:49;1.17;;;0.40;;
24273;SDS011;12392;42.678;23.380;2023-03-11T01:39:14;3.88;;;0.52;;
24273;SDS011;12392;42.678;23.380;2023-03-11T01:41:40;0.82;;;0.40;;
24273;SDS011;12392;42.678;23.380;2023-03-11T01:44:06;0.95;;;0.70;;
24273;SDS011;12392;42.678;23.380;2023-03-11T01:49:19;2.47;;;1.20;;
24273;SDS011;12392;42.678;23.380;2023-03-11T01:51:50;1.73;;;1.17;;
24273;SDS011;12392;42.678;23.380;2023-03-11T01:54:19;1.88;;;0.80;;
24273;SDS011;12392;42.678;23.380;2023-03-11T01:56:45;4.80;;;1.02;;
24273;SDS011;12392;42.678;23.380;2023-03-11T01:59:12;2.83;;;1.95;;
24273;SDS011;12392;42.678;23.380;2023-03-11T02:02:16;2.40;;;1.77;;
24273;SDS011;12392;42.678;23.380;2023-03-11T02:04:46;6.15;;;1.80;;
24273;SDS011;12392;42.678;23.380;2023-03-11T02:07:12;4.25;;;2.22;;
24273;SDS011;12392;42.678;23.380;2023-03-11T02:09:38;3.33;;;2.08;;
24273;SDS011;12392;42.678;23.380;2023-03-11T02:12:04;5.53;;;2.25;;
24273;SDS011;12392;42.678;23.380;2023-03-11T02:14:31;3.10;;;2.20;;
24273;SDS011;12392;42.678;23.380;2023-03-11T02:16:57;4.03;;;2.47;;
24273;SDS011;12392;42.678;23.380;2023-03-11T02:22:07;6.00;;;3.38;;
24273;SDS011;12392;42.678;23.380;2023-03-11T02:24:48;3.75;;;2.67;;
24273;SDS011;12392;42.678;23.380;2023-03-11T02:27:36;3.60;;;2.10;;
24273;SDS011;12392;42.678;23.380;2023-03-11T02:30:03;2.83;;;1.75;;
24273;SDS011;12392;42.678;23.380;2023-03-11T02:32:29;2.63;;;2.00;;
24273;SDS011;12392;42.678;23.380;2023-03-11T02:34:55;2.72;;;1.75;;
24273;SDS011;12392;42.678;23.380;2023-03-11T02:37:21;4.05;;;1.80;;
24273;SDS011;12392;42.678;23.380;2023-03-11T02:39:48;2.25;;;1.33;;
24273;SDS011;12392;42.678;23.380;2023-03-11T02:45:00;4.55;;;1.70;;
24273;SDS011;12392;42.678;23.380;2023-03-11T02:47:30;2.20;;;1.77;;
24273;SDS011;12392;42.678;23.380;2023-03-11T02:49:56;1.65;;;1.55;;
24273;SDS011;12392;42.678;23.380;2023-03-11T02:52:24;2.47;;;1.42;;
24273;SDS011;12392;42.678;23.380;2023-03-11T02:54:50;2.45;;;1.80;;
24273;SDS011;12392;42.678;23.380;2023-03-11T02:57:15;3.10;;;1.98;;
24273;SDS011;12392;42.678;23.380;2023-03-11T02:59:41;2.28;;;1.80;;
24273;SDS011;12392;42.678;23.380;2023-03-11T03:02:07;2.83;;;1.73;;
24273;SDS011;12392;42.678;23.380;2023-03-11T03:04:32;4.07;;;2.45;;
24273;SDS011;12392;42.678;23.380;2023-03-11T03:06:58;3.75;;;2.38;;
24273;SDS011;12392;42.678;23.380;2023-03-11T03:09:24;5.25;;;2.05;;
24273;SDS011;12392;42.678;23.380;2023-03-11T03:11:49;2.85;;;1.98;;
24273;SDS011;12392;42.678;23.380;2023-03-11T03:14:15;4.95;;;2.17;;
24273;SDS011;12392;42.678;23.380;2023-03-11T03:16:41;2.33;;;1.63;;
24273;SDS011;12392;42.678;23.380;2023-03-11T03:19:06;2.50;;;1.50;;
24273;SDS011;12392;42.678;23.380;2023-03-11T03:21:32;3.83;;;2.28;;
24273;SDS011;12392;42.678;23.380;2023-03-11T03:23:58;3.00;;;2.15;;
24273;SDS011;12392;42.678;23.380;2023-03-11T03:26:23;3.45;;;2.03;;
24273;SDS011;12392;42.678;23.380;2023-03-11T03:28:49;4.43;;;1.90;;
24273;SDS011;12392;42.678;23.380;2023-03-11T03:31:14;2.42;;;2.15;;
24273;SDS011;12392;42.678;23.380;2023-03-11T03:33:40;3.75;;;2.28;;
24273;SDS011;12392;42.678;23.380;2023-03-11T03:36:10;3.05;;;1.90;;
24273;SDS011;12392;42.678;23.380;2023-03-11T03:38:37;3.85;;;2.00;;
24273;SDS011;12392;42.678;23.380;2023-03-11T03:41:03;7.00;;;2.50;;
24273;SDS011;12392;42.678;23.380;2023-03-11T03:43:28;6.30;;;2.55;;
24273;SDS011;12392;42.678;23.380;2023-03-11T03:45:58;3.78;;;2.45;;
24273;SDS011;12392;42.678;23.380;2023-03-11T03:48:25;6.35;;;4.00;;
24273;SDS011;12392;42.678;23.380;2023-03-11T03:50:51;12.63;;;4.65;;
24273;SDS011;12392;42.678;23.380;2023-03-11T03:53:16;6.95;;;4.78;;
24273;SDS011;12392;42.678;23.380;2023-03-11T03:55:42;4.07;;;2.40;;
24273;SDS011;12392;42.678;23.380;2023-03-11T03:58:08;3.53;;;2.30;;
24273;SDS011;12392;42.678;23.380;2023-03-11T04:00:34;7.40;;;3.67;;
24273;SDS011;12392;42.678;23.380;2023-03-11T04:03:00;8.50;;;4.05;;
24273;SDS011;12392;42.678;23.380;2023-03-11T04:05:25;4.82;;;3.10;;
24273;SDS011;12392;42.678;23.380;2023-03-11T04:07:52;4.65;;;2.90;;
24273;SDS011;12392;42.678;23.380;2023-03-11T04:10:18;4.18;;;2.53;;
24273;SDS011;12392;42.678;23.380;2023-03-11T04:12:44;4.72;;;2.78;;
24273;SDS011;12392;42.678;23.380;2023-03-11T04:15:10;5.20;;;2.85;;
24273;SDS011;12392;42.678;23.380;2023-03-11T04:17:36;7.50;;;3.17;;
24273;SDS011;12392;42.678;23.380;2023-03-11T04:20:02;5.07;;;2.72;;
24273;SDS011;12392;42.678;23.380;2023-03-11T04:22:32;4.60;;;2.72;;
24273;SDS011;12392;42.678;23.380;2023-03-11T04:24:57;4.43;;;2.67;;
24273;SDS011;12392;42.678;23.380;2023-03-11T04:27:23;5.00;;;2.92;;
24273;SDS011;12392;42.678;23.380;2023-03-11T04:29:49;4.13;;;2.92;;
24273;SDS011;12392;42.678;23.380;2023-03-11T04:32:15;4.43;;;3.03;;
24273;SDS011;12392;42.678;23.380;2023-03-11T04:34:40;3.88;;;2.78;;
24273;SDS011;12392;42.678;23.380;2023-03-11T04:37:06;4.03;;;2.85;;
24273;SDS011;12392;42.678;23.380;2023-03-11T04:39:32;3.45;;;2.58;;
24273;SDS011;12392;42.678;23.380;2023-03-11T04:41:57;2.47;;;2.10;;
24273;SDS011;12392;42.678;23.380;2023-03-11T04:44:23;4.60;;;3.08;;
24273;SDS011;12392;42.678;23.380;2023-03-11T04:46:49;5.57;;;3.22;;
24273;SDS011;12392;42.678;23.380;2023-03-11T04:49:14;4.05;;;3.15;;
24273;SDS011;12392;42.678;23.380;2023-03-11T04:51:40;8.57;;;3.83;;
24273;SDS011;12392;42.678;23.380;2023-03-11T04:54:06;4.95;;;2.88;;
24273;SDS011;12392;42.678;23.380;2023-03-11T04:56:32;5.50;;;3.75;;
24273;SDS011;12392;42.678;23.380;2023-03-11T04:58:58;3.47;;;2.80;;
24273;SDS011;12392;42.678;23.380;2023-03-11T05:01:23;6.80;;;4.57;;
24273;SDS011;12392;42.678;23.380;2023-03-11T05:03:49;5.00;;;2.72;;
24273;SDS011;12392;42.678;23.380;2023-03-11T05:06:15;2.88;;;2.25;;
24273;SDS011;12392;42.678;23.380;2023-03-11T05:08:40;4.32;;;2.47;;
24273;SDS011;12392;42.678;23.380;2023-03-11T05:11:06;3.95;;;2.50;;
24273;SDS011;12392;42.678;23.380;2023-03-11T05:13:32;3.58;;;2.63;;
24273;SDS011;12392;42.678;23.380;2023-03-11T05:15:58;4.55;;;2.88;;
24273;SDS011;12392;42.678;23.380;2023-03-11T05:18:24;3.08;;;2.75;;
24273;SDS011;12392;42.678;23.380;2023-03-11T05:20:50;6.10;;;2.78;;
24273;SDS011;12392;42.678;23.380;2023-03-11T05:23:16;8.75;;;2.58;;
24273;SDS011;12392;42.678;23.380;2023-03-11T05:25:41;2.00;;;1.80;;
24273;SDS011;12392;42.678;23.380;2023-03-11T05:28:07;2.42;;;1.05;;
24273;SDS011;12392;42.678;23.380;2023-03-11T05:30:33;1.83;;;1.17;;
24273;SDS011;12392;42.678;23.380;2023-03-11T05:32:58;4.30;;;1.23;;
24273;SDS011;12392;42.678;23.380;2023-03-11T05:35:24;2.75;;;0.95;;
24273;SDS011;12392;42.678;23.380;2023-03-11T05:37:50;0.40;;;0.20;;
24273;SDS011;12392;42.678;23.380;2023-03-11T05:40:17;1.48;;;0.30;;
24273;SDS011;12392;42.678;23.380;2023-03-11T05:42:43;0.88;;;0.30;;
24273;SDS011;12392;42.678;23.380;2023-03-11T05:45:09;1.55;;;0.60;;
24273;SDS011;12392;42.678;23.380;2023-03-11T05:47:35;0.57;;;0.30;;
24273;SDS011;12392;42.678;23.380;2023-03-11T05:50:00;0.77;;;0.38;;
24273;SDS011;12392;42.678;23.380;2023-03-11T05:52:26;0.20;;;0.20;;
24273;SDS011;12392;42.678;23.380;2023-03-11T05:54:52;0.98;;;0.40;;
24273;SDS011;12392;42.678;23.380;2023-03-11T05:57:18;0.60;;;0.32;;
24273;SDS011;12392;42.678;23.380;2023-03-11T05:59:44;0.57;;;0.38;;
24273;SDS011;12392;42.678;23.380;2023-03-11T06:02:10;0.38;;;0.30;;
24273;SDS011;12392;42.678;23.380;2023-03-11T06:04:36;0.40;;;0.20;;
24273;SDS011;12392;42.678;23.380;2023-03-11T06:07:01;0.63;;;0.32;;
24273;SDS011;12392;42.678;23.380;2023-03-11T06:09:27;0.20;;;0.20;;
24273;SDS011;12392;42.678;23.380;2023-03-11T06:11:53;3.30;;;1.50;;
24273;SDS011;12392;42.678;23.380;2023-03-11T06:14:19;3.97;;;2.85;;
24273;SDS011;12392;42.678;23.380;2023-03-11T06:16:44;3.80;;;2.08;;
24273;SDS011;12392;42.678;23.380;2023-03-11T06:19:10;4.03;;;1.88;;
24273;SDS011;12392;42.678;23.380;2023-03-11T06:21:36;1.13;;;0.60;;
24273;SDS011;12392;42.678;23.380;2023-03-11T06:24:02;0.40;;;0.20;;
24273;SDS011;12392;42.678;23.380;2023-03-11T06:26:28;1.33;;;0.40;;
24273;SDS011;12392;42.678;23.380;2023-03-11T06:28:53;0.35;;;0.30;;
24273;SDS011;12392;42.678;23.380;2023-03-11T06:31:23;0.25;;;0.20;;
24273;SDS011;12392;42.678;23.380;2023-03-11T06:33:51;0.70;;;0.20;;
24273;SDS011;12392;42.678;23.380;2023-03-11T06:36:18;0.95;;;0.52;;
24273;SDS011;12392;42.678;23.380;2023-03-11T06:38:44;0.30;;;0.28;;
24273;SDS011;12392;42.678;23.380;2023-03-11T06:41:11;0.20;;;0.20;;
24273;SDS011;12392;42.678;23.380;2023-03-11T06:43:37;0.80;;;0.40;;
24273;SDS011;12392;42.678;23.380;2023-03-11T06:46:14;0.20;;;0.20;;
24273;SDS011;12392;42.678;23.380;2023-03-11T06:48:42;0.40;;;0.40;;
24273;SDS011;12392;42.678;23.380;2023-03-11T06:51:08;1.25;;;0.60;;
24273;SDS011;12392;42.678;23.380;2023-03-11T06:53:34;1.65;;;0.70;;
24273;SDS011;12392;42.678;23.380;2023-03-11T06:56:00;1.55;;;0.65;;
24273;SDS011;12392;42.678;23.380;2023-03-11T06:58:26;1.15;;;0.75;;
24273;SDS011;12392;42.678;23.380;2023-03-11T07:00:52;1.73;;;1.10;;
24273;SDS011;12392;42.678;23.380;2023-03-11T07:03:18;1.73;;;0.80;;
24273;SDS011;12392;42.678;23.380;2023-03-11T07:05:44;1.15;;;0.80;;
24273;SDS011;12392;42.678;23.380;2023-03-11T07:08:10;1.58;;;0.63;;
24273;SDS011;12392;42.678;23.380;2023-03-11T07:10:35;1.65;;;0.68;;
24273;SDS011;12392;42.678;23.380;2023-03-11T07:13:01;1.50;;;0.50;;
24273;SDS011;12392;42.678;23.380;2023-03-11T07:15:27;0.80;;;0.50;;
24273;SDS011;12392;42.678;23.380;2023-03-11T07:17:53;1.52;;;0.60;;
24273;SDS011;12392;42.678;23.380;2023-03-11T07:20:18;0.22;;;0.22;;
24273;SDS011;12392;42.678;23.380;2023-03-11T07:22:44;0.20;;;0.20;;
24273;SDS011;12392;42.678;23.380;2023-03-11T07:25:10;2.08;;;0.57;;
24273;SDS011;12392;42.678;23.380;2023-03-11T07:27:35;0.82;;;0.65;;
24273;SDS011;12392;42.678;23.380;2023-03-11T07:30:01;0.63;;;0.30;;
24273;SDS011;12392;42.678;23.380;2023-03-11T07:32:27;0.52;;;0.40;;
24273;SDS011;12392;42.678;23.380;2023-03-11T07:34:53;0.65;;;0.55;;
24273;SDS011;12392;42.678;23.380;2023-03-11T07:37:19;0.85;;;0.43;;
24273;SDS011;12392;42.678;23.380;2023-03-11T07:39:44;2.42;;;0.70;;
24273;SDS011;12392;42.678;23.380;2023-03-11T07:42:10;2.72;;;0.63;;
24273;SDS011;12392;42.678;23.380;2023-03-11T07:44:35;1.38;;;0.68;;
24273;SDS011;12392;42.678;23.380;2023-03-11T07:47:02;2.17;;;0.75;;
24273;SDS011;12392;42.678;23.380;2023-03-11T07:49:28;4.00;;;0.93;;
24273;SDS011;12392;42.678;23.380;2023-03-11T07:51:54;2.65;;;0.82;;
24273;SDS011;12392;42.678;23.380;2023-03-11T07:54:20;1.17;;;0.60;;
24273;SDS011;12392;42.678;23.380;2023-03-11T07:56:46;2.17;;;0.77;;
24273;SDS011;12392;42.678;23.380;2023-03-11T07:59:11;2.42;;;0.98;;
24273;SDS011;12392;42.678;23.380;2023-03-11T08:01:37;2.25;;;0.63;;
24273;SDS011;12392;42.678;23.380;2023-03-11T08:04:06;1.27;;;0.60;;
24273;SDS011;12392;42.678;23.380;2023-03-11T08:06:33;0.70;;;0.50;;
24273;SDS011;12392;42.678;23.380;2023-03-11T08:09:00;1.95;;;0.60;;
24273;SDS011;12392;42.678;23.380;2023-03-11T08:11:27;0.65;;;0.38;;
24273;SDS011;12392;42.678;23.380;2023-03-11T08:13:54;1.05;;;0.60;;
24273;SDS011;12392;42.678;23.380;2023-03-11T08:16:21;0.73;;;0.50;;
24273;SDS011;12392;42.678;23.380;2023-03-11T08:18:48;1.38;;;0.73;;
24273;SDS011;12392;42.678;23.380;2023-03-11T08:21:16;1.10;;;0.82;;
24273;SDS011;12392;42.678;23.380;2023-03-11T08:23:43;0.82;;;0.70;;
24273;SDS011;12392;42.678;23.380;2023-03-11T08:26:13;2.25;;;0.82;;
24273;SDS011;12392;42.678;23.380;2023-03-11T08:28:40;1.10;;;0.60;;
24273;SDS011;12392;42.678;23.380;2023-03-11T08:31:13;1.20;;;0.75;;
24273;SDS011;12392;42.678;23.380;2023-03-11T08:33:41;2.25;;;0.90;;
24273;SDS011;12392;42.678;23.380;2023-03-11T08:36:07;0.93;;;0.63;;
24273;SDS011;12392;42.678;23.380;2023-03-11T08:38:33;2.95;;;0.82;;
24273;SDS011;12392;42.678;23.380;2023-03-11T08:40:59;2.00;;;0.50;;
24273;SDS011;12392;42.678;23.380;2023-03-11T08:43:25;0.73;;;0.40;;
24273;SDS011;12392;42.678;23.380;2023-03-11T08:45:50;0.85;;;0.57;;
24273;SDS011;12392;42.678;23.380;2023-03-11T08:48:16;0.80;;;0.60;;
24273;SDS011;12392;42.678;23.380;2023-03-11T08:50:42;5.18;;;0.90;;
24273;SDS011;12392;42.678;23.380;2023-03-11T08:53:08;1.60;;;0.70;;
24273;SDS011;12392;42.678;23.380;2023-03-11T08:55:34;3.22;;;0.82;;
24273;SDS011;12392;42.678;23.380;2023-03-11T08:57:59;0.60;;;0.45;;
24273;SDS011;12392;42.678;23.380;2023-03-11T09:00:25;1.95;;;0.55;;
24273;SDS011;12392;42.678;23.380;2023-03-11T09:02:51;2.30;;;0.70;;
24273;SDS011;12392;42.678;23.380;2023-03-11T09:05:17;0.70;;;0.70;;
24273;SDS011;12392;42.678;23.380;2023-03-11T09:07:43;0.50;;;0.50;;
24273;SDS011;12392;42.678;23.380;2023-03-11T09:10:10;1.70;;;0.90;;
24273;SDS011;12392;42.678;23.380;2023-03-11T09:12:37;0.82;;;0.70;;
24273;SDS011;12392;42.678;23.380;2023-03-11T09:15:03;1.73;;;0.65;;
24273;SDS011;12392;42.678;23.380;2023-03-11T09:17:30;1.27;;;0.70;;
24273;SDS011;12392;42.678;23.380;2023-03-11T09:19:55;3.60;;;0.77;;
24273;SDS011;12392;42.678;23.380;2023-03-11T09:22:21;1.75;;;0.70;;
24273;SDS011;12392;42.678;23.380;2023-03-11T09:24:47;1.10;;;0.65;;
24273;SDS011;12392;42.678;23.380;2023-03-11T09:27:13;0.57;;;0.57;;
24273;SDS011;12392;42.678;23.380;2023-03-11T09:29:39;1.85;;;0.45;;
24273;SDS011;12392;42.678;23.380;2023-03-11T09:32:05;0.77;;;0.77;;
24273;SDS011;12392;42.678;23.380;2023-03-11T09:34:31;0.65;;;0.35;;
24273;SDS011;12392;42.678;23.380;2023-03-11T09:36:57;2.28;;;0.60;;
24273;SDS011;12392;42.678;23.380;2023-03-11T09:39:22;0.63;;;0.40;;
24273;SDS011;12392;42.678;23.380;2023-03-11T09:41:51;0.32;;;0.32;;
24273;SDS011;12392;42.678;23.380;2023-03-11T09:44:28;3.70;;;0.50;;
24273;SDS011;12392;42.678;23.380;2023-03-11T09:55:02;0.52;;;0.50;;
24273;SDS011;12392;42.678;23.380;2023-03-11T09:57:33;2.85;;;0.85;;
24273;SDS011;12392;42.678;23.380;2023-03-11T10:00:02;3.33;;;0.90;;
24273;SDS011;12392;42.678;23.380;2023-03-11T10:02:30;0.95;;;0.47;;
24273;SDS011;12392;42.678;23.380;2023-03-11T10:04:57;0.80;;;0.40;;
24273;SDS011;12392;42.678;23.380;2023-03-11T10:07:32;2.13;;;0.60;;
24273;SDS011;12392;42.678;23.380;2023-03-11T10:10:04;1.98;;;0.55;;
24273;SDS011;12392;42.678;23.380;2023-03-11T10:15:18;0.53;;;0.53;;
24273;SDS011;12392;42.678;23.380;2023-03-11T10:28:19;1.08;;;0.73;;
24273;SDS011;12392;42.678;23.380;2023-03-11T10:30:50;1.30;;;0.50;;
24273;SDS011;12392;42.678;23.380;2023-03-11T10:33:36;0.77;;;0.52;;
24273;SDS011;12392;42.678;23.380;2023-03-11T10:36:07;0.63;;;0.60;;
24273;SDS011;12392;42.678;23.380;2023-03-11T10:38:38;2.50;;;0.77;;
24273;SDS011;12392;42.678;23.380;2023-03-11T10:41:11;1.02;;;0.57;;
24273;SDS011;12392;42.678;23.380;2023-03-11T10:43:44;1.67;;;0.60;;
24273;SDS011;12392;42.678;23.380;2023-03-11T10:46:19;1.55;;;0.50;;
24273;SDS011;12392;42.678;23.380;2023-03-11T10:48:49;1.05;;;0.77;;
24273;SDS011;12392;42.678;23.380;2023-03-11T10:51:16;0.80;;;0.65;;
24273;SDS011;12392;42.678;23.380;2023-03-11T10:53:51;0.98;;;0.88;;
24273;SDS011;12392;42.678;23.380;2023-03-11T10:58:57;0.55;;;0.30;;
24273;SDS011;12392;42.678;23.380;2023-03-11T11:01:24;2.67;;;0.73;;
24273;SDS011;12392;42.678;23.380;2023-03-11T11:03:51;0.60;;;0.40;;
24273;SDS011;12392;42.678;23.380;2023-03-11T11:06:21;0.40;;;0.38;;
24273;SDS011;12392;42.678;23.380;2023-03-11T11:12:14;1.73;;;0.63;;
24273;SDS011;12392;42.678;23.380;2023-03-11T11:14:45;0.60;;;0.50;;
24273;SDS011;12392;42.678;23.380;2023-03-11T11:17:20;1.67;;;0.80;;
24273;SDS011;12392;42.678;23.380;2023-03-11T11:19:49;1.33;;;0.47;;
24273;SDS011;12392;42.678;23.380;2023-03-11T11:22:16;0.50;;;0.50;;
24273;SDS011;12392;42.678;23.380;2023-03-11T11:24:45;1.10;;;0.50;;
24273;SDS011;12392;42.678;23.380;2023-03-11T11:32:39;1.50;;;0.50;;
24273;SDS011;12392;42.678;23.380;2023-03-11T11:35:09;0.43;;;0.40;;
24273;SDS011;12392;42.678;23.380;2023-03-11T11:37:41;0.77;;;0.45;;
24273;SDS011;12392;42.678;23.380;2023-03-11T11:42:45;1.80;;;0.47;;
24273;SDS011;12392;42.678;23.380;2023-03-11T11:50:46;0.93;;;0.50;;
24273;SDS011;12392;42.678;23.380;2023-03-11T11:55:59;0.40;;;0.32;;
24273;SDS011;12392;42.678;23.380;2023-03-11T11:58:25;1.35;;;0.70;;
24273;SDS011;12392;42.678;23.380;2023-03-11T12:01:03;3.70;;;0.70;;
24273;SDS011;12392;42.678;23.380;2023-03-11T12:09:12;2.47;;;0.75;;
24273;SDS011;12392;42.678;23.380;2023-03-11T12:16:59;0.98;;;0.50;;
24273;SDS011;12392;42.678;23.380;2023-03-11T12:19:42;1.45;;;0.50;;
24273;SDS011;12392;42.678;23.380;2023-03-11T12:25:15;3.00;;;0.50;;
24273;SDS011;12392;42.678;23.380;2023-03-11T12:27:55;1.55;;;0.65;;
24273;SDS011;12392;42.678;23.380;2023-03-11T12:30:29;1.02;;;0.35;;
24273;SDS011;12392;42.678;23.380;2023-03-11T12:33:01;0.55;;;0.35;;
24273;SDS011;12392;42.678;23.380;2023-03-11T12:35:30;1.98;;;0.47;;
24273;SDS011;12392;42.678;23.380;2023-03-11T12:43:22;1.95;;;0.30;;
24273;SDS011;12392;42.678;23.380;2023-03-11T12:46:05;0.82;;;0.50;;
24273;SDS011;12392;42.678;23.380;2023-03-11T12:48:32;1.30;;;0.40;;
24273;SDS011;12392;42.678;23.380;2023-03-11T12:51:36;0.70;;;0.40;;
24273;SDS011;12392;42.678;23.380;2023-03-11T12:56:55;0.80;;;0.45;;
24273;SDS011;12392;42.678;23.380;2023-03-11T12:59:35;1.30;;;0.55;;
24273;SDS011;12392;42.678;23.380;2023-03-11T13:07:58;0.50;;;0.40;;
24273;SDS011;12392;42.678;23.380;2023-03-11T13:13:00;0.90;;;0.35;;
24273;SDS011;12392;42.678;23.380;2023-03-11T13:15:28;1.27;;;0.50;;
24273;SDS011;12392;42.678;23.380;2023-03-11T13:17:59;2.30;;;0.60;;
24273;SDS011;12392;42.678;23.380;2023-03-11T13:23:08;0.73;;;0.50;;
24273;SDS011;12392;42.678;23.380;2023-03-11T13:25:38;1.52;;;0.65;;
24273;SDS011;12392;42.678;23.380;2023-03-11T13:31:04;2.97;;;0.55;;
24273;SDS011;12392;42.678;23.380;2023-03-11T13:33:36;1.23;;;0.50;;
24273;SDS011;12392;42.678;23.380;2023-03-11T13:41:36;0.60;;;0.50;;
24273;SDS011;12392;42.678;23.380;2023-03-11T13:47:08;2.28;;;0.70;;
24273;SDS011;12392;42.678;23.380;2023-03-11T13:49:51;1.63;;;0.68;;
24273;SDS011;12392;42.678;23.380;2023-03-11T13:52:23;1.20;;;0.60;;
24273;SDS011;12392;42.678;23.380;2023-03-11T13:54:54;0.57;;;0.50;;
24273;SDS011;12392;42.678;23.380;2023-03-11T13:57:36;0.95;;;0.65;;
24273;SDS011;12392;42.678;23.380;2023-03-11T14:02:42;0.52;;;0.47;;
24273;SDS011;12392;42.678;23.380;2023-03-11T14:05:12;2.72;;;0.60;;
24273;SDS011;12392;42.678;23.380;2023-03-11T14:07:40;2.90;;;0.77;;
24273;SDS011;12392;42.678;23.380;2023-03-11T14:10:16;0.93;;;0.68;;
24273;SDS011;12392;42.678;23.380;2023-03-11T14:12:42;3.65;;;0.50;;
24273;SDS011;12392;42.678;23.380;2023-03-11T14:15:08;1.00;;;0.63;;
24273;SDS011;12392;42.678;23.380;2023-03-11T14:17:42;1.52;;;0.60;;
24273;SDS011;12392;42.678;23.380;2023-03-11T14:20:11;1.45;;;0.50;;
24273;SDS011;12392;42.678;23.380;2023-03-11T14:22:40;1.20;;;0.43;;
24273;SDS011;12392;42.678;23.380;2023-03-11T14:25:09;1.17;;;0.50;;
24273;SDS011;12392;42.678;23.380;2023-03-11T14:27:38;0.60;;;0.60;;
24273;SDS011;12392;42.678;23.380;2023-03-11T14:30:17;1.33;;;0.57;;
24273;SDS011;12392;42.678;23.380;2023-03-11T14:32:54;0.82;;;0.73;;
24273;SDS011;12392;42.678;23.380;2023-03-11T14:35:37;2.22;;;0.75;;
24273;SDS011;12392;42.678;23.380;2023-03-11T14:38:03;1.00;;;0.57;;
24273;SDS011;12392;42.678;23.380;2023-03-11T14:40:52;1.80;;;0.88;;
24273;SDS011;12392;42.678;23.380;2023-03-11T14:43:20;0.80;;;0.75;;
24273;SDS011;12392;42.678;23.380;2023-03-11T14:45:46;1.17;;;0.85;;
24273;SDS011;12392;42.678;23.380;2023-03-11T14:48:16;1.90;;;1.00;;
24273;SDS011;12392;42.678;23.380;2023-03-11T14:50:44;0.95;;;0.77;;
24273;SDS011;12392;42.678;23.380;2023-03-11T14:55:50;1.00;;;0.77;;
24273;SDS011;12392;42.678;23.380;2023-03-11T15:01:08;1.50;;;0.95;;
24273;SDS011;12392;42.678;23.380;2023-03-11T15:03:47;5.35;;;1.58;;
24273;SDS011;12392;42.678;23.380;2023-03-11T15:06:16;3.45;;;1.80;;
24273;SDS011;12392;42.678;23.380;2023-03-11T15:08:43;2.33;;;1.38;;
24273;SDS011;12392;42.678;23.380;2023-03-11T15:13:41;2.45;;;1.27;;
24273;SDS011;12392;42.678;23.380;2023-03-11T15:18:54;2.15;;;0.88;;
24273;SDS011;12392;42.678;23.380;2023-03-11T15:21:21;3.55;;;0.82;;
24273;SDS011;12392;42.678;23.380;2023-03-11T15:23:50;2.75;;;1.10;;
24273;SDS011;12392;42.678;23.380;2023-03-11T15:26:17;3.53;;;1.13;;
24273;SDS011;12392;42.678;23.380;2023-03-11T15:28:51;3.40;;;1.33;;
24273;SDS011;12392;42.678;23.380;2023-03-11T15:33:44;4.68;;;1.42;;
24273;SDS011;12392;42.678;23.380;2023-03-11T15:44:32;3.70;;;1.98;;
24273;SDS011;12392;42.678;23.380;2023-03-11T15:47:04;6.05;;;1.63;;
24273;SDS011;12392;42.678;23.380;2023-03-11T15:49:41;4.35;;;2.08;;
24273;SDS011;12392;42.678;23.380;2023-03-11T15:52:07;5.63;;;1.95;;
24273;SDS011;12392;42.678;23.380;2023-03-11T15:54:33;3.60;;;1.75;;
24273;SDS011;12392;42.678;23.380;2023-03-11T15:56:59;4.28;;;2.30;;
24273;SDS011;12392;42.678;23.380;2023-03-11T15:59:25;4.15;;;2.15;;
24273;SDS011;12392;42.678;23.380;2023-03-11T16:01:53;4.82;;;2.30;;
24273;SDS011;12392;42.678;23.380;2023-03-11T16:04:19;3.20;;;2.22;;
24273;SDS011;12392;42.678;23.380;2023-03-11T16:06:46;8.25;;;2.42;;
24273;SDS011;12392;42.678;23.380;2023-03-11T16:09:12;7.80;;;2.83;;
24273;SDS011;12392;42.678;23.380;2023-03-11T16:11:38;3.20;;;2.22;;
24273;SDS011;12392;42.678;23.380;2023-03-11T16:14:05;3.80;;;2.47;;
24273;SDS011;12392;42.678;23.380;2023-03-11T16:16:31;3.90;;;2.45;;
24273;SDS011;12392;42.678;23.380;2023-03-11T16:18:57;2.60;;;1.98;;
24273;SDS011;12392;42.678;23.380;2023-03-11T16:21:23;3.50;;;2.90;;
24273;SDS011;12392;42.678;23.380;2023-03-11T16:23:58;3.42;;;2.05;;
24273;SDS011;12392;42.678;23.380;2023-03-11T16:26:24;3.97;;;2.83;;
24273;SDS011;12392;42.678;23.380;2023-03-11T16:28:50;4.05;;;2.25;;
24273;SDS011;12392;42.678;23.380;2023-03-11T16:31:15;3.22;;;2.60;;
24273;SDS011;12392;42.678;23.380;2023-03-11T16:33:41;3.00;;;2.33;;
24273;SDS011;12392;42.678;23.380;2023-03-11T16:36:07;2.35;;;2.15;;
24273;SDS011;12392;42.678;23.380;2023-03-11T16:38:40;3.83;;;2.53;;